sensor_id;sensor_type;location;lat;lon;timestamp;temperature;humidity
15241;DHT22;7723;52.170;9.978;2023-07-30T00:01:50;17.20;99.90
15241;DHT22;7723;52.170;9.978;2023-07-30T00:04:17;17.20;99.90
15241;DHT22;7723;52.170;9.978;2023-07-30T00:06:44;17.10;99.90
15241;DHT22;7723;52.170;9.978;2023-07-30T00:09:12;17.10;99.90
15241;DHT22;7723;52.170;9.978;2023-07-30T00:11:40;17.10;99.90
15241;DHT22;7723;52.170;9.978;2023-07-30T00:14:07;17.10;99.90
15241;DHT22;7723;52.170;9.978;2023-07-30T00:16:34;17.00;99.90
15241;DHT22;7723;52.170;9.978;2023-07-30T00:19:01;16.90;99.90
15241;DHT22;7723;52.170;9.978;2023-07-30T00:21:29;16.90;99.90
15241;DHT22;7723;52.170;9.978;2023-07-30T00:23:56;16.90;99.90
15241;DHT22;7723;52.170;9.978;2023-07-30T00:26:23;16.80;99.90
15241;DHT22;7723;52.170;9.978;2023-07-30T00:28:53;16.70;99.90
15241;DHT22;7723;52.170;9.978;2023-07-30T00:31:20;16.70;99.90
15241;DHT22;7723;52.170;9.978;2023-07-30T00:33:47;16.60;99.90
15241;DHT22;7723;52.170;9.978;2023-07-30T00:36:14;16.50;99.90
15241;DHT22;7723;52.170;9.978;2023-07-30T00:38:41;16.50;99.90
15241;DHT22;7723;52.170;9.978;2023-07-30T00:41:08;16.40;99.90
15241;DHT22;7723;52.170;9.978;2023-07-30T00:43:35;16.30;99.90
15241;DHT22;7723;52.170;9.978;2023-07-30T00:46:04;16.30;99.90
15241;DHT22;7723;52.170;9.978;2023-07-30T00:48:31;16.20;99.90
15241;DHT22;7723;52.170;9.978;2023-07-30T00:50:59;16.20;99.90
15241;DHT22;7723;52.170;9.978;2023-07-30T00:53:28;16.10;99.90
15241;DHT22;7723;52.170;9.978;2023-07-30T00:55:55;16.10;99.90
15241;DHT22;7723;52.170;9.978;2023-07-30T00:58:23;16.20;99.90
15241;DHT22;7723;52.170;9.978;2023-07-30T01:00:51;16.30;99.90
15241;DHT22;7723;52.170;9.978;2023-07-30T01:03:21;16.30;99.90
15241;DHT22;7723;52.170;9.978;2023-07-30T01:05:48;16.50;99.90
15241;DHT22;7723;52.170;9.978;2023-07-30T01:08:15;16.70;99.90
15241;DHT22;7723;52.170;9.978;2023-07-30T01:10:43;16.80;99.90
15241;DHT22;7723;52.170;9.978;2023-07-30T01:13:10;16.90;99.90
15241;DHT22;7723;52.170;9.978;2023-07-30T01:15:38;17.10;99.90
15241;DHT22;7723;52.170;9.978;2023-07-30T01:18:06;17.20;99.90
15241;DHT22;7723;52.170;9.978;2023-07-30T01:20:35;17.20;99.90
15241;DHT22;7723;52.170;9.978;2023-07-30T01:23:04;17.30;99.90
15241;DHT22;7723;52.170;9.978;2023-07-30T01:25:35;17.30;99.90
15241;DHT22;7723;52.170;9.978;2023-07-30T01:28:04;17.30;99.90
15241;DHT22;7723;52.170;9.978;2023-07-30T01:30:35;17.40;99.90
15241;DHT22;7723;52.170;9.978;2023-07-30T01:33:05;17.50;99.90
15241;DHT22;7723;52.170;9.978;2023-07-30T01:35:33;17.50;99.90
15241;DHT22;7723;52.170;9.978;2023-07-30T01:38:03;17.60;99.90
15241;DHT22;7723;52.170;9.978;2023-07-30T01:40:31;17.60;99.90
15241;DHT22;7723;52.170;9.978;2023-07-30T01:42:58;17.70;99.90
15241;DHT22;7723;52.170;9.978;2023-07-30T01:45:25;17.70;99.90
15241;DHT22;7723;52.170;9.978;2023-07-30T01:47:52;17.70;99.90
15241;DHT22;7723;52.170;9.978;2023-07-30T01:50:19;17.70;99.90
15241;DHT22;7723;52.170;9.978;2023-07-30T01:52:47;17.70;99.90
15241;DHT22;7723;52.170;9.978;2023-07-30T01:55:16;17.70;99.90
15241;DHT22;7723;52.170;9.978;2023-07-30T01:57:43;17.70;99.90
15241;DHT22;7723;52.170;9.978;2023-07-30T02:00:11;17.70;99.90
15241;DHT22;7723;52.170;9.978;2023-07-30T02:02:39;17.70;99.90
15241;DHT22;7723;52.170;9.978;2023-07-30T02:05:06;17.70;99.90
15241;DHT22;7723;52.170;9.978;2023-07-30T02:07:33;17.60;99.90
15241;DHT22;7723;52.170;9.978;2023-07-30T02:10:00;17.60;99.90
15241;DHT22;7723;52.170;9.978;2023-07-30T02:12:29;17.50;99.90
15241;DHT22;7723;52.170;9.978;2023-07-30T02:14:56;17.40;99.90
15241;DHT22;7723;52.170;9.978;2023-07-30T02:17:23;17.30;99.90
15241;DHT22;7723;52.170;9.978;2023-07-30T02:19:50;17.20;99.90
15241;DHT22;7723;52.170;9.978;2023-07-30T02:22:17;17.10;99.90
15241;DHT22;7723;52.170;9.978;2023-07-30T02:24:44;17.00;99.90
15241;DHT22;7723;52.170;9.978;2023-07-30T02:27:11;16.80;99.90
15241;DHT22;7723;52.170;9.978;2023-07-30T02:29:39;16.80;99.90
15241;DHT22;7723;52.170;9.978;2023-07-30T02:32:07;16.70;99.90
15241;DHT22;7723;52.170;9.978;2023-07-30T02:34:34;16.60;99.90
15241;DHT22;7723;52.170;9.978;2023-07-30T02:37:01;16.50;99.90
15241;DHT22;7723;52.170;9.978;2023-07-30T02:39:28;16.40;99.90
15241;DHT22;7723;52.170;9.978;2023-07-30T02:41:55;16.30;99.90
15241;DHT22;7723;52.170;9.978;2023-07-30T02:44:22;16.20;99.90
15241;DHT22;7723;52.170;9.978;2023-07-30T02:46:51;16.20;99.90
15241;DHT22;7723;52.170;9.978;2023-07-30T02:49:18;16.10;99.90
15241;DHT22;7723;52.170;9.978;2023-07-30T02:51:45;16.10;99.90
15241;DHT22;7723;52.170;9.978;2023-07-30T02:54:14;16.10;99.90
15241;DHT22;7723;52.170;9.978;2023-07-30T02:56:43;16.00;99.90
15241;DHT22;7723;52.170;9.978;2023-07-30T02:59:11;16.00;99.90
15241;DHT22;7723;52.170;9.978;2023-07-30T03:01:38;16.00;99.90
15241;DHT22;7723;52.170;9.978;2023-07-30T03:04:06;16.00;99.90
15241;DHT22;7723;52.170;9.978;2023-07-30T03:06:33;16.00;99.90
15241;DHT22;7723;52.170;9.978;2023-07-30T03:09:00;16.00;99.90
15241;DHT22;7723;52.170;9.978;2023-07-30T03:11:28;15.90;99.90
15241;DHT22;7723;52.170;9.978;2023-07-30T03:13:55;15.90;99.90
15241;DHT22;7723;52.170;9.978;2023-07-30T03:16:22;15.90;99.90
15241;DHT22;7723;52.170;9.978;2023-07-30T03:18:49;15.80;99.90
15241;DHT22;7723;52.170;9.978;2023-07-30T03:21:18;15.80;99.90
15241;DHT22;7723;52.170;9.978;2023-07-30T03:23:45;15.80;99.90
15241;DHT22;7723;52.170;9.978;2023-07-30T03:26:14;15.80;99.90
15241;DHT22;7723;52.170;9.978;2023-07-30T03:28:41;15.80;99.90
15241;DHT22;7723;52.170;9.978;2023-07-30T03:31:08;15.70;99.90
15241;DHT22;7723;52.170;9.978;2023-07-30T03:33:36;15.70;99.90
15241;DHT22;7723;52.170;9.978;2023-07-30T03:36:05;15.70;99.90
15241;DHT22;7723;52.170;9.978;2023-07-30T03:38:33;15.70;99.90
15241;DHT22;7723;52.170;9.978;2023-07-30T03:41:00;15.70;99.90
15241;DHT22;7723;52.170;9.978;2023-07-30T03:43:27;15.70;99.90
15241;DHT22;7723;52.170;9.978;2023-07-30T03:45:54;15.60;99.90
15241;DHT22;7723;52.170;9.978;2023-07-30T03:48:22;15.70;99.90
15241;DHT22;7723;52.170;9.978;2023-07-30T03:50:49;15.70;99.90
15241;DHT22;7723;52.170;9.978;2023-07-30T03:53:16;15.60;99.90
15241;DHT22;7723;52.170;9.978;2023-07-30T03:55:44;15.60;99.90
15241;DHT22;7723;52.170;9.978;2023-07-30T03:58:12;15.60;99.90
15241;DHT22;7723;52.170;9.978;2023-07-30T04:00:39;15.60;99.90
15241;DHT22;7723;52.170;9.978;2023-07-30T04:03:06;16.30;99.90
15241;DHT22;7723;52.170;9.978;2023-07-30T04:05:33;15.60;99.90
15241;DHT22;7723;52.170;9.978;2023-07-30T04:08:00;15.60;99.90
15241;DHT22;7723;52.170;9.978;2023-07-30T04:10:27;15.60;99.90
15241;DHT22;7723;52.170;9.978;2023-07-30T04:12:56;15.60;99.90
15241;DHT22;7723;52.170;9.978;2023-07-30T04:15:23;15.70;99.90
15241;DHT22;7723;52.170;9.978;2023-07-30T04:17:51;15.70;99.90
15241;DHT22;7723;52.170;9.978;2023-07-30T04:20:18;15.70;99.90
15241;DHT22;7723;52.170;9.978;2023-07-30T04:22:45;15.90;99.90
15241;DHT22;7723;52.170;9.978;2023-07-30T04:25:12;15.80;99.90
15241;DHT22;7723;52.170;9.978;2023-07-30T04:27:39;15.90;99.90
15241;DHT22;7723;52.170;9.978;2023-07-30T04:30:08;15.90;99.90
15241;DHT22;7723;52.170;9.978;2023-07-30T04:32:36;16.00;99.90
15241;DHT22;7723;52.170;9.978;2023-07-30T04:35:03;16.20;99.90
15241;DHT22;7723;52.170;9.978;2023-07-30T04:37:30;16.60;99.90
15241;DHT22;7723;52.170;9.978;2023-07-30T04:39:57;17.30;99.90
15241;DHT22;7723;52.170;9.978;2023-07-30T04:42:24;17.90;99.90
15241;DHT22;7723;52.170;9.978;2023-07-30T04:44:52;18.30;99.90
15241;DHT22;7723;52.170;9.978;2023-07-30T04:47:20;18.60;99.90
15241;DHT22;7723;52.170;9.978;2023-07-30T04:49:47;18.60;99.90
15241;DHT22;7723;52.170;9.978;2023-07-30T04:52:14;18.30;99.90
15241;DHT22;7723;52.170;9.978;2023-07-30T04:54:42;18.40;99.90
15241;DHT22;7723;52.170;9.978;2023-07-30T04:57:09;18.80;99.90
15241;DHT22;7723;52.170;9.978;2023-07-30T04:59:36;19.20;99.90
15241;DHT22;7723;52.170;9.978;2023-07-30T05:02:03;19.70;99.90
15241;DHT22;7723;52.170;9.978;2023-07-30T05:04:32;20.10;99.90
15241;DHT22;7723;52.170;9.978;2023-07-30T05:06:59;20.20;99.90
15241;DHT22;7723;52.170;9.978;2023-07-30T05:09:26;20.70;99.90
15241;DHT22;7723;52.170;9.978;2023-07-30T05:11:53;20.90;99.90
15241;DHT22;7723;52.170;9.978;2023-07-30T05:14:20;21.10;99.90
15241;DHT22;7723;52.170;9.978;2023-07-30T05:16:48;21.30;99.90
15241;DHT22;7723;52.170;9.978;2023-07-30T05:19:16;21.60;99.90
15241;DHT22;7723;52.170;9.978;2023-07-30T05:21:45;21.70;49.50
15241;DHT22;7723;52.170;9.978;2023-07-30T05:24:12;21.90;1.00
15241;DHT22;7723;52.170;9.978;2023-07-30T05:26:39;21.90;1.00
15241;DHT22;7723;52.170;9.978;2023-07-30T05:29:06;21.80;1.00
15241;DHT22;7723;52.170;9.978;2023-07-30T05:31:34;21.30;99.90
15241;DHT22;7723;52.170;9.978;2023-07-30T05:34:01;21.40;99.90
15241;DHT22;7723;52.170;9.978;2023-07-30T05:36:28;21.60;99.90
15241;DHT22;7723;52.170;9.978;2023-07-30T05:38:57;21.60;99.90
15241;DHT22;7723;52.170;9.978;2023-07-30T05:41:24;21.70;1.00
15241;DHT22;7723;52.170;9.978;2023-07-30T05:43:51;21.90;1.00
15241;DHT22;7723;52.170;9.978;2023-07-30T05:46:18;21.90;1.00
15241;DHT22;7723;52.170;9.978;2023-07-30T05:48:45;21.90;1.00
15241;DHT22;7723;52.170;9.978;2023-07-30T05:51:13;22.10;99.90
15241;DHT22;7723;52.170;9.978;2023-07-30T05:53:40;22.10;99.90
15241;DHT22;7723;52.170;9.978;2023-07-30T05:56:08;21.50;99.90
15241;DHT22;7723;52.170;9.978;2023-07-30T05:58:36;21.50;99.90
15241;DHT22;7723;52.170;9.978;2023-07-30T06:01:03;22.20;1.00
15241;DHT22;7723;52.170;9.978;2023-07-30T06:03:30;22.80;99.90
15241;DHT22;7723;52.170;9.978;2023-07-30T06:05:57;22.50;1.00
15241;DHT22;7723;52.170;9.978;2023-07-30T06:08:24;22.50;1.00
15241;DHT22;7723;52.170;9.978;2023-07-30T06:10:51;22.90;1.00
15241;DHT22;7723;52.170;9.978;2023-07-30T06:13:20;23.80;1.00
15241;DHT22;7723;52.170;9.978;2023-07-30T06:15:47;24.20;1.00
15241;DHT22;7723;52.170;9.978;2023-07-30T06:18:14;24.10;1.00
15241;DHT22;7723;52.170;9.978;2023-07-30T06:20:41;23.60;99.90
15241;DHT22;7723;52.170;9.978;2023-07-30T06:23:08;22.90;1.00
15241;DHT22;7723;52.170;9.978;2023-07-30T06:25:35;22.70;99.90
15241;DHT22;7723;52.170;9.978;2023-07-30T06:28:02;23.00;99.90
15241;DHT22;7723;52.170;9.978;2023-07-30T06:30:31;23.60;99.90
15241;DHT22;7723;52.170;9.978;2023-07-30T06:32:59;23.30;1.00
15241;DHT22;7723;52.170;9.978;2023-07-30T06:35:26;23.50;1.00
15241;DHT22;7723;52.170;9.978;2023-07-30T06:37:53;23.40;1.00
15241;DHT22;7723;52.170;9.978;2023-07-30T06:40:20;23.70;1.00
15241;DHT22;7723;52.170;9.978;2023-07-30T06:42:47;24.00;99.90
15241;DHT22;7723;52.170;9.978;2023-07-30T06:45:14;24.40;41.10
15241;DHT22;7723;52.170;9.978;2023-07-30T06:47:43;24.10;1.00
15241;DHT22;7723;52.170;9.978;2023-07-30T06:50:10;23.80;1.00
15241;DHT22;7723;52.170;9.978;2023-07-30T06:52:37;23.90;1.00
15241;DHT22;7723;52.170;9.978;2023-07-30T06:55:05;24.20;1.00
15241;DHT22;7723;52.170;9.978;2023-07-30T06:57:32;24.30;1.00
15241;DHT22;7723;52.170;9.978;2023-07-30T06:59:59;23.80;1.00
15241;DHT22;7723;52.170;9.978;2023-07-30T07:02:26;24.20;1.00
15241;DHT22;7723;52.170;9.978;2023-07-30T07:04:55;24.20;1.00
15241;DHT22;7723;52.170;9.978;2023-07-30T07:07:22;23.60;27.00
15241;DHT22;7723;52.170;9.978;2023-07-30T07:09:49;23.40;99.90
15241;DHT22;7723;52.170;9.978;2023-07-30T07:12:16;23.80;97.60
15241;DHT22;7723;52.170;9.978;2023-07-30T07:14:43;24.10;1.00
15241;DHT22;7723;52.170;9.978;2023-07-30T07:17:10;24.00;1.00
15241;DHT22;7723;52.170;9.978;2023-07-30T07:19:37;24.30;1.00
15241;DHT22;7723;52.170;9.978;2023-07-30T07:22:06;24.10;1.00
15241;DHT22;7723;52.170;9.978;2023-07-30T07:24:33;24.20;1.00
15241;DHT22;7723;52.170;9.978;2023-07-30T07:27:00;24.10;1.00
15241;DHT22;7723;52.170;9.978;2023-07-30T07:29:27;24.30;1.00
15241;DHT22;7723;52.170;9.978;2023-07-30T07:31:54;24.40;99.90
15241;DHT22;7723;52.170;9.978;2023-07-30T07:34:21;24.30;1.00
15241;DHT22;7723;52.170;9.978;2023-07-30T07:36:48;24.40;1.00
15241;DHT22;7723;52.170;9.978;2023-07-30T07:39:17;24.20;1.00
15241;DHT22;7723;52.170;9.978;2023-07-30T07:41:45;24.40;1.00
15241;DHT22;7723;52.170;9.978;2023-07-30T07:44:12;24.10;3.50
15241;DHT22;7723;52.170;9.978;2023-07-30T07:46:39;24.50;1.00
15241;DHT22;7723;52.170;9.978;2023-07-30T07:49:06;24.00;99.90
15241;DHT22;7723;52.170;9.978;2023-07-30T07:51:34;24.40;99.90
15241;DHT22;7723;52.170;9.978;2023-07-30T07:54:01;24.60;99.90
15241;DHT22;7723;52.170;9.978;2023-07-30T07:56:31;25.40;1.00
15241;DHT22;7723;52.170;9.978;2023-07-30T07:58:58;25.20;1.00
15241;DHT22;7723;52.170;9.978;2023-07-30T08:01:25;25.50;1.00
15241;DHT22;7723;52.170;9.978;2023-07-30T08:03:52;25.40;1.00
15241;DHT22;7723;52.170;9.978;2023-07-30T08:06:19;25.30;1.00
15241;DHT22;7723;52.170;9.978;2023-07-30T08:08:46;24.90;1.00
15241;DHT22;7723;52.170;9.978;2023-07-30T08:11:14;25.40;1.00
15241;DHT22;7723;52.170;9.978;2023-07-30T08:13:42;25.00;1.00
15241;DHT22;7723;52.170;9.978;2023-07-30T08:16:09;25.60;1.00
15241;DHT22;7723;52.170;9.978;2023-07-30T08:18:36;26.00;1.00
15241;DHT22;7723;52.170;9.978;2023-07-30T08:21:04;26.20;1.00
15241;DHT22;7723;52.170;9.978;2023-07-30T08:23:31;26.70;99.90
15241;DHT22;7723;52.170;9.978;2023-07-30T08:25:58;26.40;99.90
15241;DHT22;7723;52.170;9.978;2023-07-30T08:28:25;26.80;99.90
15241;DHT22;7723;52.170;9.978;2023-07-30T08:30:59;26.50;99.90
15241;DHT22;7723;52.170;9.978;2023-07-30T08:33:27;27.00;99.90
15241;DHT22;7723;52.170;9.978;2023-07-30T08:35:55;26.30;99.90
15241;DHT22;7723;52.170;9.978;2023-07-30T08:38:22;26.30;99.90
15241;DHT22;7723;52.170;9.978;2023-07-30T08:40:49;26.40;52.70
15241;DHT22;7723;52.170;9.978;2023-07-30T08:43:18;26.70;34.80
15241;DHT22;7723;52.170;9.978;2023-07-30T08:45:45;27.50;1.00
15241;DHT22;7723;52.170;9.978;2023-07-30T08:48:14;27.90;1.00
15241;DHT22;7723;52.170;9.978;2023-07-30T08:50:41;27.40;1.00
15241;DHT22;7723;52.170;9.978;2023-07-30T08:53:09;26.10;99.90
15241;DHT22;7723;52.170;9.978;2023-07-30T08:55:37;26.60;99.90
15241;DHT22;7723;52.170;9.978;2023-07-30T08:58:06;25.30;8.70
15241;DHT22;7723;52.170;9.978;2023-07-30T09:00:36;25.50;48.50
15241;DHT22;7723;52.170;9.978;2023-07-30T09:03:04;25.60;99.90
15241;DHT22;7723;52.170;9.978;2023-07-30T09:05:33;25.40;1.00
15241;DHT22;7723;52.170;9.978;2023-07-30T09:08:00;25.70;99.90
15241;DHT22;7723;52.170;9.978;2023-07-30T09:10:27;25.70;99.90
15241;DHT22;7723;52.170;9.978;2023-07-30T09:12:56;25.70;99.90
15241;DHT22;7723;52.170;9.978;2023-07-30T09:15:31;25.20;99.90
15241;DHT22;7723;52.170;9.978;2023-07-30T09:17:59;24.20;1.00
15241;DHT22;7723;52.170;9.978;2023-07-30T09:20:26;23.80;53.10
15241;DHT22;7723;52.170;9.978;2023-07-30T09:22:58;23.80;37.50
15241;DHT22;7723;52.170;9.978;2023-07-30T09:25:25;23.40;99.90
15241;DHT22;7723;52.170;9.978;2023-07-30T09:27:53;23.20;1.00
15241;DHT22;7723;52.170;9.978;2023-07-30T09:30:23;23.40;1.00
15241;DHT22;7723;52.170;9.978;2023-07-30T09:32:53;23.90;1.00
15241;DHT22;7723;52.170;9.978;2023-07-30T09:35:21;24.30;1.00
15241;DHT22;7723;52.170;9.978;2023-07-30T09:37:52;24.50;99.90
15241;DHT22;7723;52.170;9.978;2023-07-30T09:40:33;24.60;89.40
15241;DHT22;7723;52.170;9.978;2023-07-30T09:43:02;24.60;99.90
15241;DHT22;7723;52.170;9.978;2023-07-30T09:45:33;24.60;99.90
15241;DHT22;7723;52.170;9.978;2023-07-30T09:48:02;24.40;99.90
15241;DHT22;7723;52.170;9.978;2023-07-30T09:50:30;24.40;1.00
15241;DHT22;7723;52.170;9.978;2023-07-30T09:52:58;24.50;99.90
15241;DHT22;7723;52.170;9.978;2023-07-30T09:55:27;24.80;99.90
15241;DHT22;7723;52.170;9.978;2023-07-30T09:57:56;24.60;99.90
15241;DHT22;7723;52.170;9.978;2023-07-30T10:00:23;24.00;1.00
15241;DHT22;7723;52.170;9.978;2023-07-30T10:02:52;23.40;99.90
15241;DHT22;7723;52.170;9.978;2023-07-30T10:05:20;23.00;99.90
15241;DHT22;7723;52.170;9.978;2023-07-30T10:07:54;22.70;99.90
15241;DHT22;7723;52.170;9.978;2023-07-30T10:10:24;22.60;1.00
15241;DHT22;7723;52.170;9.978;2023-07-30T10:12:55;22.40;1.00
15241;DHT22;7723;52.170;9.978;2023-07-30T10:15:26;22.30;99.90
15241;DHT22;7723;52.170;9.978;2023-07-30T10:17:53;22.30;99.90
15241;DHT22;7723;52.170;9.978;2023-07-30T10:20:24;22.00;1.00
15241;DHT22;7723;52.170;9.978;2023-07-30T10:22:53;21.60;1.00
15241;DHT22;7723;52.170;9.978;2023-07-30T10:25:22;21.10;1.00
15241;DHT22;7723;52.170;9.978;2023-07-30T10:27:50;20.90;1.00
15241;DHT22;7723;52.170;9.978;2023-07-30T10:30:20;20.90;99.90
15241;DHT22;7723;52.170;9.978;2023-07-30T10:33:01;21.00;1.00
15241;DHT22;7723;52.170;9.978;2023-07-30T10:35:36;20.90;1.00
15241;DHT22;7723;52.170;9.978;2023-07-30T10:38:13;20.70;1.00
15241;DHT22;7723;52.170;9.978;2023-07-30T10:40:40;20.90;99.90
15241;DHT22;7723;52.170;9.978;2023-07-30T10:43:14;21.00;1.00
15241;DHT22;7723;52.170;9.978;2023-07-30T10:45:50;21.10;99.90
15241;DHT22;7723;52.170;9.978;2023-07-30T10:48:17;21.10;99.90
15241;DHT22;7723;52.170;9.978;2023-07-30T10:50:45;21.10;99.90
15241;DHT22;7723;52.170;9.978;2023-07-30T10:53:14;21.10;99.90
15241;DHT22;7723;52.170;9.978;2023-07-30T10:55:45;20.90;1.00
15241;DHT22;7723;52.170;9.978;2023-07-30T10:58:13;20.80;1.00
15241;DHT22;7723;52.170;9.978;2023-07-30T11:00:41;20.70;1.00
15241;DHT22;7723;52.170;9.978;2023-07-30T11:03:10;20.70;1.00
15241;DHT22;7723;52.170;9.978;2023-07-30T11:05:38;20.80;1.00
15241;DHT22;7723;52.170;9.978;2023-07-30T11:08:05;20.80;1.00
15241;DHT22;7723;52.170;9.978;2023-07-30T11:10:41;20.80;99.90
15241;DHT22;7723;52.170;9.978;2023-07-30T11:13:09;20.90;1.00
15241;DHT22;7723;52.170;9.978;2023-07-30T11:15:41;20.90;45.90
15241;DHT22;7723;52.170;9.978;2023-07-30T11:18:11;20.80;1.00
15241;DHT22;7723;52.170;9.978;2023-07-30T11:20:38;20.90;1.00
15241;DHT22;7723;52.170;9.978;2023-07-30T11:23:18;20.90;1.00
15241;DHT22;7723;52.170;9.978;2023-07-30T11:25:46;20.80;1.00
15241;DHT22;7723;52.170;9.978;2023-07-30T11:28:26;20.70;1.00
15241;DHT22;7723;52.170;9.978;2023-07-30T11:30:53;20.70;99.90
15241;DHT22;7723;52.170;9.978;2023-07-30T11:33:22;20.90;1.00
15241;DHT22;7723;52.170;9.978;2023-07-30T11:35:50;21.00;1.00
15241;DHT22;7723;52.170;9.978;2023-07-30T11:38:17;21.10;1.00
15241;DHT22;7723;52.170;9.978;2023-07-30T11:40:46;21.20;1.00
15241;DHT22;7723;52.170;9.978;2023-07-30T11:43:14;21.30;99.90
15241;DHT22;7723;52.170;9.978;2023-07-30T11:45:41;21.40;99.90
15241;DHT22;7723;52.170;9.978;2023-07-30T11:48:09;21.20;99.90
15241;DHT22;7723;52.170;9.978;2023-07-30T11:50:46;21.20;1.00
15241;DHT22;7723;52.170;9.978;2023-07-30T11:53:14;21.20;99.90
15241;DHT22;7723;52.170;9.978;2023-07-30T11:55:42;21.00;99.90
15241;DHT22;7723;52.170;9.978;2023-07-30T11:58:11;21.10;99.90
15241;DHT22;7723;52.170;9.978;2023-07-30T12:00:38;21.20;99.90
15241;DHT22;7723;52.170;9.978;2023-07-30T12:03:07;20.90;1.00
15241;DHT22;7723;52.170;9.978;2023-07-30T12:05:37;20.70;1.00
15241;DHT22;7723;52.170;9.978;2023-07-30T12:08:12;20.70;99.90
15241;DHT22;7723;52.170;9.978;2023-07-30T12:10:43;20.70;30.20
15241;DHT22;7723;52.170;9.978;2023-07-30T12:13:16;21.10;1.00
15241;DHT22;7723;52.170;9.978;2023-07-30T12:15:44;21.60;1.00
15241;DHT22;7723;52.170;9.978;2023-07-30T12:18:17;21.60;1.00
15241;DHT22;7723;52.170;9.978;2023-07-30T12:20:44;22.10;1.00
15241;DHT22;7723;52.170;9.978;2023-07-30T12:23:13;21.70;99.90
15241;DHT22;7723;52.170;9.978;2023-07-30T12:25:40;21.70;99.90
15241;DHT22;7723;52.170;9.978;2023-07-30T12:28:07;22.10;1.00
15241;DHT22;7723;52.170;9.978;2023-07-30T12:30:34;22.10;99.90
15241;DHT22;7723;52.170;9.978;2023-07-30T12:33:02;22.10;1.00
15241;DHT22;7723;52.170;9.978;2023-07-30T12:35:29;21.80;1.00
15241;DHT22;7723;52.170;9.978;2023-07-30T12:37:57;21.90;99.90
15241;DHT22;7723;52.170;9.978;2023-07-30T12:40:26;21.90;1.00
15241;DHT22;7723;52.170;9.978;2023-07-30T12:42:55;22.10;1.00
15241;DHT22;7723;52.170;9.978;2023-07-30T12:45:23;22.20;1.00
15241;DHT22;7723;52.170;9.978;2023-07-30T12:47:50;22.40;1.00
15241;DHT22;7723;52.170;9.978;2023-07-30T12:50:17;22.70;1.00
15241;DHT22;7723;52.170;9.978;2023-07-30T12:52:44;22.70;1.00
15241;DHT22;7723;52.170;9.978;2023-07-30T12:55:11;22.70;99.90
15241;DHT22;7723;52.170;9.978;2023-07-30T12:57:40;22.60;1.00
15241;DHT22;7723;52.170;9.978;2023-07-30T13:00:08;22.60;99.90
15241;DHT22;7723;52.170;9.978;2023-07-30T13:02:35;22.40;1.00
15241;DHT22;7723;52.170;9.978;2023-07-30T13:05:02;22.40;99.90
15241;DHT22;7723;52.170;9.978;2023-07-30T13:07:29;22.30;99.90
15241;DHT22;7723;52.170;9.978;2023-07-30T13:10:04;22.60;1.00
15241;DHT22;7723;52.170;9.978;2023-07-30T13:12:31;22.70;1.00
15241;DHT22;7723;52.170;9.978;2023-07-30T13:15:00;22.90;1.00
15241;DHT22;7723;52.170;9.978;2023-07-30T13:17:28;23.10;1.00
15241;DHT22;7723;52.170;9.978;2023-07-30T13:19:55;22.90;99.90
15241;DHT22;7723;52.170;9.978;2023-07-30T13:22:22;22.80;1.00
15241;DHT22;7723;52.170;9.978;2023-07-30T13:24:49;22.70;99.90
15241;DHT22;7723;52.170;9.978;2023-07-30T13:27:17;22.50;1.00
15241;DHT22;7723;52.170;9.978;2023-07-30T13:29:44;22.30;1.00
15241;DHT22;7723;52.170;9.978;2023-07-30T13:32:13;22.20;99.90
15241;DHT22;7723;52.170;9.978;2023-07-30T13:34:40;22.20;99.90
15241;DHT22;7723;52.170;9.978;2023-07-30T13:37:08;22.30;1.00
15241;DHT22;7723;52.170;9.978;2023-07-30T13:39:35;22.30;1.00
15241;DHT22;7723;52.170;9.978;2023-07-30T13:42:02;22.40;1.00
15241;DHT22;7723;52.170;9.978;2023-07-30T13:44:29;22.40;99.90
15241;DHT22;7723;52.170;9.978;2023-07-30T13:46:56;22.50;99.90
15241;DHT22;7723;52.170;9.978;2023-07-30T13:49:24;22.50;1.00
15241;DHT22;7723;52.170;9.978;2023-07-30T13:51:51;22.50;99.90
15241;DHT22;7723;52.170;9.978;2023-07-30T13:54:18;22.50;1.00
15241;DHT22;7723;52.170;9.978;2023-07-30T13:56:45;22.50;1.00
15241;DHT22;7723;52.170;9.978;2023-07-30T13:59:13;22.60;1.00
15241;DHT22;7723;52.170;9.978;2023-07-30T14:01:40;22.50;99.90
15241;DHT22;7723;52.170;9.978;2023-07-30T14:04:07;22.40;1.00
15241;DHT22;7723;52.170;9.978;2023-07-30T14:06:35;22.20;1.00
15241;DHT22;7723;52.170;9.978;2023-07-30T14:09:02;22.10;99.90
15241;DHT22;7723;52.170;9.978;2023-07-30T14:11:30;21.60;99.90
15241;DHT22;7723;52.170;9.978;2023-07-30T14:13:57;22.10;1.00
15241;DHT22;7723;52.170;9.978;2023-07-30T14:16:25;22.00;1.00
15241;DHT22;7723;52.170;9.978;2023-07-30T14:18:52;21.90;1.00
15241;DHT22;7723;52.170;9.978;2023-07-30T14:21:19;21.80;1.00
15241;DHT22;7723;52.170;9.978;2023-07-30T14:23:48;22.00;1.00
15241;DHT22;7723;52.170;9.978;2023-07-30T14:26:15;22.20;1.00
15241;DHT22;7723;52.170;9.978;2023-07-30T14:28:42;22.40;1.00
15241;DHT22;7723;52.170;9.978;2023-07-30T14:31:10;22.30;99.90
15241;DHT22;7723;52.170;9.978;2023-07-30T14:33:37;22.10;99.90
15241;DHT22;7723;52.170;9.978;2023-07-30T14:36:05;21.90;99.30
15241;DHT22;7723;52.170;9.978;2023-07-30T14:38:32;21.70;1.00
15241;DHT22;7723;52.170;9.978;2023-07-30T14:41:01;21.50;1.00
15241;DHT22;7723;52.170;9.978;2023-07-30T14:43:31;21.50;99.90
15241;DHT22;7723;52.170;9.978;2023-07-30T14:45:58;21.40;1.00
15241;DHT22;7723;52.170;9.978;2023-07-30T14:48:25;21.60;20.90
15241;DHT22;7723;52.170;9.978;2023-07-30T14:50:53;21.90;1.00
15241;DHT22;7723;52.170;9.978;2023-07-30T14:53:20;22.00;28.10
15241;DHT22;7723;52.170;9.978;2023-07-30T14:55:47;21.90;1.00
15241;DHT22;7723;52.170;9.978;2023-07-30T14:58:15;21.80;1.00
15241;DHT22;7723;52.170;9.978;2023-07-30T15:00:43;21.70;1.00
15241;DHT22;7723;52.170;9.978;2023-07-30T15:03:10;21.70;1.00
15241;DHT22;7723;52.170;9.978;2023-07-30T15:05:37;21.50;1.00
15241;DHT22;7723;52.170;9.978;2023-07-30T15:08:04;21.40;1.00
15241;DHT22;7723;52.170;9.978;2023-07-30T15:10:31;21.20;1.00
15241;DHT22;7723;52.170;9.978;2023-07-30T15:12:59;21.10;1.00
15241;DHT22;7723;52.170;9.978;2023-07-30T15:15:27;20.70;99.90
15241;DHT22;7723;52.170;9.978;2023-07-30T15:17:54;20.70;1.00
15241;DHT22;7723;52.170;9.978;2023-07-30T15:20:21;20.60;99.90
15241;DHT22;7723;52.170;9.978;2023-07-30T15:22:49;20.30;99.90
15241;DHT22;7723;52.170;9.978;2023-07-30T15:25:16;20.10;99.90
15241;DHT22;7723;52.170;9.978;2023-07-30T15:27:43;19.60;99.90
15241;DHT22;7723;52.170;9.978;2023-07-30T15:30:11;19.40;1.00
15241;DHT22;7723;52.170;9.978;2023-07-30T15:32:42;19.20;1.00
15241;DHT22;7723;52.170;9.978;2023-07-30T15:35:10;19.10;1.00
15241;DHT22;7723;52.170;9.978;2023-07-30T15:37:38;19.10;1.00
15241;DHT22;7723;52.170;9.978;2023-07-30T15:40:06;19.20;99.90
15241;DHT22;7723;52.170;9.978;2023-07-30T15:42:33;19.10;99.90
15241;DHT22;7723;52.170;9.978;2023-07-30T15:45:01;19.20;1.00
15241;DHT22;7723;52.170;9.978;2023-07-30T15:47:28;19.10;99.90
15241;DHT22;7723;52.170;9.978;2023-07-30T15:49:56;19.10;99.90
15241;DHT22;7723;52.170;9.978;2023-07-30T15:52:23;19.10;99.90
15241;DHT22;7723;52.170;9.978;2023-07-30T15:54:50;19.10;99.90
15241;DHT22;7723;52.170;9.978;2023-07-30T15:57:17;19.20;99.90